BVLO2: Caney River, Bartlesville, OK

Data processed at Thu May 23 2019 23:50


All information presented herein is the property of the government of the United States of America and may be revised or deleted at any time without prior notice.
Dissemination of this information without the expressed written consent of the Public Affairs Office, Tulsa District U.S. Army Corps of Engineers is strictly prohibited.
These data are gathered electronically and, as presented, have not undergone any form of quality control. These data are not guaranteed to be valid or correct.
Go to home page.
Go to station list.
Go to home page.

Upstream stations:

Downstream station:
Previous Day
Next Day
Current Day
    
SHEF ID:       BVLO2     Caney River above Coon Creek at
STATION TYPE:  
Regulating: Stage =    13.00, Flow =    12189

               PRECIP     STAGE  STAGE(2)  RIV-FLOW  BAT-LOAD
                   in        ft        ft       cfs      volt
              Ccp-Rev   Ccp-Rev   Ccp-Rev   Ccp-Rev   Ccp-Rev
(US/Central)
05/23 00:00      0.34     14.83      ----     13778     12.65
05/23 01:00      0.67     15.05      ----     14038     12.65
05/23 02:00      0.00     15.17      ----     14186     12.57
05/23 03:00      0.24     15.37      ----     14433     12.57
05/23 04:00      0.03     15.52      ----     14618     12.57
05/23 05:00      0.01     15.66      ----     14791     12.57
05/23 06:00      0.00     15.79      ----     14952     12.57
05/23 07:00      0.00     15.87      ----     15059     12.57
05/23 08:00      0.03     15.95      ----     15174     12.57
05/23 09:00      0.00     16.03      ----     15290     12.57
05/23 10:00      0.00     16.06      ----     15333     12.65
05/23 11:00      0.00     16.05      ----     15318     13.29
05/23 12:00      0.00     15.99      ----     15232     13.29
05/23 13:00      0.00     15.92      ----     15131     13.60
05/23 14:00      0.00     15.87      ----     15059     13.84
05/23 15:00      0.00     15.77      ----     14928     13.84
05/23 16:00      0.00     15.70      ----     14841     13.13
05/23 17:00      0.00     15.61      ----     14730     13.05
05/23 18:00      0.00     15.54      ----     14643     13.05
05/23 19:00      0.00     15.44      ----     14520     13.05
05/23 20:00      0.00     15.37      ----     14433     12.97
05/23 21:00      0.00     15.27      ----     14310     12.65
05/23 22:00      0.00     15.18      ----     14198     12.65
05/23 23:00      0.00     15.09      ----     14087     12.65